sensor_id;sensor_type;location;lat;lon;timestamp;pressure;altitude;pressure_sealevel;temperature;humidity
66430;BME280;53242;51.694;10.006;2023-07-29T00:00:48;98868.94;;;19.69;89.38
66430;BME280;53242;51.694;10.006;2023-07-29T00:03:10;98860.38;;;19.67;89.23
66430;BME280;53242;51.694;10.006;2023-07-29T00:05:33;98855.03;;;19.62;89.22
66430;BME280;53242;51.694;10.006;2023-07-29T00:07:55;98858.75;;;19.77;88.48
66430;BME280;53242;51.694;10.006;2023-07-29T00:10:18;98864.38;;;19.70;88.98
66430;BME280;53242;51.694;10.006;2023-07-29T00:12:40;98861.44;;;19.71;88.56
66430;BME280;53242;51.694;10.006;2023-07-29T00:15:03;98858.75;;;19.77;88.30
66430;BME280;53242;51.694;10.006;2023-07-29T00:17:25;98851.25;;;19.79;88.11
66430;BME280;53242;51.694;10.006;2023-07-29T00:19:48;98853.41;;;19.82;87.61
66430;BME280;53242;51.694;10.006;2023-07-29T00:22:10;98853.97;;;19.84;87.21
66430;BME280;53242;51.694;10.006;2023-07-29T00:24:33;98850.19;;;19.80;87.46
66430;BME280;53242;51.694;10.006;2023-07-29T00:26:55;98849.66;;;19.83;87.03
66430;BME280;53242;51.694;10.006;2023-07-29T00:29:17;98860.09;;;19.79;87.02
66430;BME280;53242;51.694;10.006;2023-07-29T00:31:40;98858.25;;;19.85;86.24
66430;BME280;53242;51.694;10.006;2023-07-29T00:34:02;98859.56;;;19.77;86.76
66430;BME280;53242;51.694;10.006;2023-07-29T00:36:25;98859.84;;;19.65;87.09
66430;BME280;53242;51.694;10.006;2023-07-29T00:38:47;98853.13;;;19.68;86.83
66430;BME280;53242;51.694;10.006;2023-07-29T00:41:11;98840.03;;;19.71;86.67
66430;BME280;53242;51.694;10.006;2023-07-29T00:43:37;98834.94;;;19.70;86.11
66430;BME280;53242;51.694;10.006;2023-07-29T00:46:00;98834.16;;;19.59;86.66
66430;BME280;53242;51.694;10.006;2023-07-29T00:48:23;98840.88;;;19.51;86.87
66430;BME280;53242;51.694;10.006;2023-07-29T00:50:46;98837.38;;;19.51;86.86
66430;BME280;53242;51.694;10.006;2023-07-29T00:53:08;98840.88;;;19.51;86.67
66430;BME280;53242;51.694;10.006;2023-07-29T00:55:31;98837.38;;;19.51;86.48
66430;BME280;53242;51.694;10.006;2023-07-29T00:57:53;98846.47;;;19.34;86.87
66430;BME280;53242;51.694;10.006;2023-07-29T01:00:16;98840.06;;;19.41;86.63
66430;BME280;53242;51.694;10.006;2023-07-29T01:02:39;98849.97;;;19.30;87.08
66430;BME280;53242;51.694;10.006;2023-07-29T01:05:02;98853.16;;;19.37;86.65
66430;BME280;53242;51.694;10.006;2023-07-29T01:07:33;98848.91;;;19.41;86.42
66430;BME280;53242;51.694;10.006;2023-07-29T01:13:00;98833.66;;;19.36;86.77
66430;BME280;53242;51.694;10.006;2023-07-29T01:18:08;98820.53;;;19.40;86.62
66430;BME280;53242;51.694;10.006;2023-07-29T01:20:34;98817.59;;;19.31;87.25
66430;BME280;53242;51.694;10.006;2023-07-29T01:22:59;98810.13;;;19.33;86.69
66430;BME280;53242;51.694;10.006;2023-07-29T01:25:21;98802.09;;;19.38;86.49
66430;BME280;53242;51.694;10.006;2023-07-29T01:27:45;98805.00;;;19.42;86.28
66430;BME280;53242;51.694;10.006;2023-07-29T01:30:08;98805.81;;;19.37;86.62
66430;BME280;53242;51.694;10.006;2023-07-29T01:32:52;98810.91;;;19.39;87.05
66430;BME280;53242;51.694;10.006;2023-07-29T01:35:27;98821.06;;;19.32;87.46
66430;BME280;53242;51.694;10.006;2023-07-29T01:37:55;98824.00;;;19.35;87.17
66430;BME280;53242;51.694;10.006;2023-07-29T01:40:18;98825.34;;;19.28;87.69
66430;BME280;53242;51.694;10.006;2023-07-29T01:42:42;98827.75;;;19.29;87.42
66430;BME280;53242;51.694;10.006;2023-07-29T01:45:05;98828.03;;;19.28;87.82
66430;BME280;53242;51.694;10.006;2023-07-29T01:47:27;98826.97;;;19.34;87.52
66430;BME280;53242;51.694;10.006;2023-07-29T01:49:51;98823.50;;;19.33;87.68
66430;BME280;53242;51.694;10.006;2023-07-29T01:52:14;98825.34;;;19.38;87.49
66430;BME280;53242;51.694;10.006;2023-07-29T01:54:37;98813.31;;;19.35;87.68
66430;BME280;53242;51.694;10.006;2023-07-29T01:56:59;98810.63;;;19.35;87.83
66430;BME280;53242;51.694;10.006;2023-07-29T01:59:22;98810.09;;;19.44;87.41
66430;BME280;53242;51.694;10.006;2023-07-29T02:01:44;98818.38;;;19.42;87.50
66430;BME280;53242;51.694;10.006;2023-07-29T02:04:08;98809.00;;;19.50;87.35
66430;BME280;53242;51.694;10.006;2023-07-29T02:06:31;98810.91;;;19.39;88.06
66430;BME280;53242;51.694;10.006;2023-07-29T02:08:54;98808.22;;;19.39;88.41
66430;BME280;53242;51.694;10.006;2023-07-29T02:11:17;98802.59;;;19.51;87.71
66430;BME280;53242;51.694;10.006;2023-07-29T02:13:39;98797.22;;;19.56;87.20
66430;BME280;53242;51.694;10.006;2023-07-29T02:16:02;98803.94;;;19.43;88.34
66430;BME280;53242;51.694;10.006;2023-07-29T02:18:24;98803.66;;;19.39;88.60
66430;BME280;53242;51.694;10.006;2023-07-29T02:20:46;98805.00;;;19.42;88.80
66430;BME280;53242;51.694;10.006;2023-07-29T02:23:11;98786.53;;;19.46;88.51
66430;BME280;53242;51.694;10.006;2023-07-29T02:25:35;98792.44;;;19.48;88.24
66430;BME280;53242;51.694;10.006;2023-07-29T02:27:58;98798.84;;;19.42;89.19
66430;BME280;53242;51.694;10.006;2023-07-29T02:30:21;98791.38;;;19.38;89.13
66430;BME280;53242;51.694;10.006;2023-07-29T02:32:43;98789.50;;;19.39;89.12
66430;BME280;53242;51.694;10.006;2023-07-29T02:35:06;98790.84;;;19.42;89.19
66430;BME280;53242;51.694;10.006;2023-07-29T02:37:28;98786.81;;;19.39;88.94
66430;BME280;53242;51.694;10.006;2023-07-29T02:39:51;98794.28;;;19.47;88.77
66430;BME280;53242;51.694;10.006;2023-07-29T02:42:14;98793.50;;;19.47;88.61
66430;BME280;53242;51.694;10.006;2023-07-29T02:44:36;98792.94;;;19.45;88.81
66430;BME280;53242;51.694;10.006;2023-07-29T02:46:58;98789.50;;;19.44;88.79
66430;BME280;53242;51.694;10.006;2023-07-29T02:49:22;98792.16;;;19.49;88.39
66430;BME280;53242;51.694;10.006;2023-07-29T02:51:45;98789.22;;;19.46;88.61
66430;BME280;53242;51.694;10.006;2023-07-29T02:54:07;98792.44;;;19.48;88.38
66430;BME280;53242;51.694;10.006;2023-07-29T02:56:30;98780.13;;;19.47;88.75
66430;BME280;53242;51.694;10.006;2023-07-29T02:58:55;98786.53;;;19.46;88.63
66430;BME280;53242;51.694;10.006;2023-07-29T03:01:18;98772.09;;;19.42;88.78
66430;BME280;53242;51.694;10.006;2023-07-29T03:03:40;98768.09;;;19.39;88.91
66430;BME280;53242;51.694;10.006;2023-07-29T03:06:07;98763.81;;;19.38;88.97
66430;BME280;53242;51.694;10.006;2023-07-29T03:08:30;98773.72;;;19.37;88.80
66430;BME280;53242;51.694;10.006;2023-07-29T03:10:54;98778.25;;;19.37;88.53
66430;BME280;53242;51.694;10.006;2023-07-29T03:13:16;98768.88;;;19.39;88.40
66430;BME280;53242;51.694;10.006;2023-07-29T03:15:38;98772.13;;;19.31;88.84
66430;BME280;53242;51.694;10.006;2023-07-29T03:18:01;98764.63;;;19.28;89.20
66430;BME280;53242;51.694;10.006;2023-07-29T03:20:23;98772.13;;;19.26;89.55
66430;BME280;53242;51.694;10.006;2023-07-29T03:22:46;98767.03;;;19.30;89.17
66430;BME280;53242;51.694;10.006;2023-07-29T03:25:09;98767.31;;;19.28;89.09
66430;BME280;53242;51.694;10.006;2023-07-29T03:27:31;98765.16;;;19.30;89.30
66430;BME280;53242;51.694;10.006;2023-07-29T03:29:54;98768.88;;;19.34;89.10
66430;BME280;53242;51.694;10.006;2023-07-29T03:32:16;98766.47;;;19.38;88.91
66430;BME280;53242;51.694;10.006;2023-07-29T03:34:39;98764.63;;;19.38;88.81
66430;BME280;53242;51.694;10.006;2023-07-29T03:37:02;98761.38;;;19.47;88.34
66430;BME280;53242;51.694;10.006;2023-07-29T03:39:25;98757.09;;;19.51;87.82
66430;BME280;53242;51.694;10.006;2023-07-29T03:41:48;98753.88;;;19.54;87.72
66430;BME280;53242;51.694;10.006;2023-07-29T03:44:10;98741.84;;;19.51;87.95
66430;BME280;53242;51.694;10.006;2023-07-29T03:46:33;98742.09;;;19.50;87.94
66430;BME280;53242;51.694;10.006;2023-07-29T03:48:55;98742.94;;;19.45;87.88
66430;BME280;53242;51.694;10.006;2023-07-29T03:51:18;98747.72;;;19.48;87.62
66430;BME280;53242;51.694;10.006;2023-07-29T03:53:40;98745.31;;;19.47;88.08
66430;BME280;53242;51.694;10.006;2023-07-29T03:56:03;98739.19;;;19.51;87.69
66430;BME280;53242;51.694;10.006;2023-07-29T03:58:25;98736.50;;;19.51;87.71
66430;BME280;53242;51.694;10.006;2023-07-29T04:00:48;98733.81;;;19.57;87.69
66430;BME280;53242;51.694;10.006;2023-07-29T04:03:11;98732.72;;;19.58;87.72
66430;BME280;53242;51.694;10.006;2023-07-29T04:05:33;98726.56;;;19.62;87.32
66430;BME280;53242;51.694;10.006;2023-07-29T04:07:55;98725.19;;;19.70;87.27
66430;BME280;53242;51.694;10.006;2023-07-29T04:10:18;98715.31;;;19.60;87.84
66430;BME280;53242;51.694;10.006;2023-07-29T04:12:41;98723.25;;;19.81;86.87
66430;BME280;53242;51.694;10.006;2023-07-29T04:15:03;98722.75;;;19.84;86.67
66430;BME280;53242;51.694;10.006;2023-07-29T04:17:26;98721.41;;;19.86;86.48
66430;BME280;53242;51.694;10.006;2023-07-29T04:19:48;98720.84;;;19.90;86.60
66430;BME280;53242;51.694;10.006;2023-07-29T04:22:10;98720.03;;;19.94;86.05
66430;BME280;53242;51.694;10.006;2023-07-29T04:24:33;98721.31;;;20.07;85.67
66430;BME280;53242;51.694;10.006;2023-07-29T04:26:55;98729.91;;;19.99;85.90
66430;BME280;53242;51.694;10.006;2023-07-29T04:29:18;98725.16;;;19.85;86.82
66430;BME280;53242;51.694;10.006;2023-07-29T04:31:40;98729.44;;;19.86;86.83
66430;BME280;53242;51.694;10.006;2023-07-29T04:34:04;98728.59;;;19.91;86.66
66430;BME280;53242;51.694;10.006;2023-07-29T04:36:28;98722.75;;;19.89;86.84
66430;BME280;53242;51.694;10.006;2023-07-29T04:38:50;98729.44;;;19.86;87.25
66430;BME280;53242;51.694;10.006;2023-07-29T04:41:13;98731.81;;;19.93;86.99
66430;BME280;53242;51.694;10.006;2023-07-29T04:43:35;98728.59;;;19.91;87.02
66430;BME280;53242;51.694;10.006;2023-07-29T04:45:58;98726.78;;;19.71;88.49
66430;BME280;53242;51.694;10.006;2023-07-29T04:48:20;98731.91;;;19.57;89.41
66430;BME280;53242;51.694;10.006;2023-07-29T04:50:43;98739.94;;;19.62;89.73
66430;BME280;53242;51.694;10.006;2023-07-29T04:53:05;98737.50;;;19.71;89.59
66430;BME280;53242;51.694;10.006;2023-07-29T04:55:28;98734.56;;;19.67;90.57
66430;BME280;53242;51.694;10.006;2023-07-29T04:57:50;98728.16;;;19.63;90.71
66430;BME280;53242;51.694;10.006;2023-07-29T05:00:12;98723.63;;;19.53;91.24
66430;BME280;53242;51.694;10.006;2023-07-29T05:02:35;98718.56;;;19.52;91.88
66430;BME280;53242;51.694;10.006;2023-07-29T05:04:58;98709.19;;;19.49;92.12
66430;BME280;53242;51.694;10.006;2023-07-29T05:07:20;98711.31;;;19.58;91.70
66430;BME280;53242;51.694;10.006;2023-07-29T05:09:43;98711.28;;;19.63;91.75
66430;BME280;53242;51.694;10.006;2023-07-29T05:12:05;98715.06;;;19.62;91.92
66430;BME280;53242;51.694;10.006;2023-07-29T05:14:28;98714.78;;;19.63;92.33
66430;BME280;53242;51.694;10.006;2023-07-29T05:16:50;98716.91;;;19.61;92.77
66430;BME280;53242;51.694;10.006;2023-07-29T05:19:13;98719.03;;;19.69;92.69
66430;BME280;53242;51.694;10.006;2023-07-29T05:21:37;98716.41;;;19.59;92.64
66430;BME280;53242;51.694;10.006;2023-07-29T05:24:00;98707.38;;;19.24;94.10
66430;BME280;53242;51.694;10.006;2023-07-29T05:26:22;98708.44;;;19.44;92.56
66430;BME280;53242;51.694;10.006;2023-07-29T05:28:45;98708.91;;;19.51;92.46
66430;BME280;53242;51.694;10.006;2023-07-29T05:31:07;98708.91;;;19.51;92.62
66430;BME280;53242;51.694;10.006;2023-07-29T05:33:30;98704.41;;;19.41;92.88
66430;BME280;53242;51.694;10.006;2023-07-29T05:35:52;98705.50;;;19.30;93.58
66430;BME280;53242;51.694;10.006;2023-07-29T05:38:15;98706.28;;;19.35;93.18
66430;BME280;53242;51.694;10.006;2023-07-29T05:40:37;98704.69;;;19.34;93.33
66430;BME280;53242;51.694;10.006;2023-07-29T05:43:00;98702.31;;;19.12;94.66
66430;BME280;53242;51.694;10.006;2023-07-29T05:45:22;98699.31;;;19.34;93.81
66430;BME280;53242;51.694;10.006;2023-07-29T05:47:45;98697.75;;;19.28;94.40
66430;BME280;53242;51.694;10.006;2023-07-29T05:50:08;98700.91;;;19.41;94.00
66430;BME280;53242;51.694;10.006;2023-07-29T05:52:31;98703.31;;;19.47;93.33
66430;BME280;53242;51.694;10.006;2023-07-29T05:54:53;98705.75;;;19.44;93.69
66430;BME280;53242;51.694;10.006;2023-07-29T05:57:16;98696.63;;;19.39;94.11
66430;BME280;53242;51.694;10.006;2023-07-29T05:59:38;98704.66;;;19.39;93.79
66430;BME280;53242;51.694;10.006;2023-07-29T06:02:01;98705.22;;;19.31;94.46
66430;BME280;53242;51.694;10.006;2023-07-29T06:04:23;98700.94;;;19.30;94.99
66430;BME280;53242;51.694;10.006;2023-07-29T06:06:46;98704.44;;;19.31;94.93
66430;BME280;53242;51.694;10.006;2023-07-29T06:09:08;98698.28;;;19.25;95.58
66430;BME280;53242;51.694;10.006;2023-07-29T06:11:31;98703.34;;;19.32;94.88
66430;BME280;53242;51.694;10.006;2023-07-29T06:13:53;98705.22;;;19.31;94.16
66430;BME280;53242;51.694;10.006;2023-07-29T06:16:15;98703.59;;;19.41;94.76
66430;BME280;53242;51.694;10.006;2023-07-29T06:18:38;98700.66;;;19.42;94.92
66430;BME280;53242;51.694;10.006;2023-07-29T06:21:01;98700.09;;;19.50;94.99
66430;BME280;53242;51.694;10.006;2023-07-29T06:23:23;98701.13;;;19.60;94.90
66430;BME280;53242;51.694;10.006;2023-07-29T06:25:46;98705.69;;;19.59;94.77
66430;BME280;53242;51.694;10.006;2023-07-29T06:28:11;98713.72;;;19.59;94.80
66430;BME280;53242;51.694;10.006;2023-07-29T06:30:33;98714.81;;;19.53;96.04
66430;BME280;53242;51.694;10.006;2023-07-29T06:32:56;98714.53;;;19.49;96.28
66430;BME280;53242;51.694;10.006;2023-07-29T06:35:19;98716.13;;;19.55;95.68
66430;BME280;53242;51.694;10.006;2023-07-29T06:37:41;98708.13;;;19.50;95.26
66430;BME280;53242;51.694;10.006;2023-07-29T06:40:04;98708.13;;;19.55;94.49
66430;BME280;53242;51.694;10.006;2023-07-29T06:42:27;98709.72;;;19.57;94.81
66430;BME280;53242;51.694;10.006;2023-07-29T06:44:50;98707.81;;;19.62;94.62
66430;BME280;53242;51.694;10.006;2023-07-29T06:47:12;98709.94;;;19.60;94.70
66430;BME280;53242;51.694;10.006;2023-07-29T06:49:34;98712.84;;;19.74;93.67
66430;BME280;53242;51.694;10.006;2023-07-29T06:51:57;98715.03;;;19.72;95.05
66430;BME280;53242;51.694;10.006;2023-07-29T06:54:24;98708.78;;;19.92;94.38
66430;BME280;53242;51.694;10.006;2023-07-29T06:56:47;98715.41;;;20.05;93.25
66430;BME280;53242;51.694;10.006;2023-07-29T06:59:09;98711.94;;;20.04;93.80
66430;BME280;53242;51.694;10.006;2023-07-29T07:01:33;98713.81;;;20.04;94.47
66430;BME280;53242;51.694;10.006;2023-07-29T07:03:56;98709.34;;;19.89;95.17
66430;BME280;53242;51.694;10.006;2023-07-29T07:06:21;98705.31;;;19.92;95.59
66430;BME280;53242;51.694;10.006;2023-07-29T07:08:44;98709.25;;;20.10;95.19
66430;BME280;53242;51.694;10.006;2023-07-29T07:11:06;98713.22;;;20.17;95.62
66430;BME280;53242;51.694;10.006;2023-07-29T07:13:29;98713.91;;;20.33;94.30
66430;BME280;53242;51.694;10.006;2023-07-29T07:15:54;98708.69;;;20.52;93.53
66430;BME280;53242;51.694;10.006;2023-07-29T07:18:17;98713.41;;;20.71;92.84
66430;BME280;53242;51.694;10.006;2023-07-29T07:20:39;98702.88;;;20.80;92.44
66430;BME280;53242;51.694;10.006;2023-07-29T07:23:02;98701.03;;;21.05;92.44
66430;BME280;53242;51.694;10.006;2023-07-29T07:25:25;98691.97;;;21.00;92.02
66430;BME280;53242;51.694;10.006;2023-07-29T07:27:47;98694.88;;;21.04;92.00
66430;BME280;53242;51.694;10.006;2023-07-29T07:30:11;98694.34;;;21.02;92.50
66430;BME280;53242;51.694;10.006;2023-07-29T07:32:33;98702.53;;;20.86;93.13
66430;BME280;53242;51.694;10.006;2023-07-29T07:34:55;98708.03;;;20.71;93.67
66430;BME280;53242;51.694;10.006;2023-07-29T07:37:18;98702.41;;;20.73;93.63
66430;BME280;53242;51.694;10.006;2023-07-29T07:39:40;98708.34;;;20.64;94.00
66430;BME280;53242;51.694;10.006;2023-07-29T07:42:03;98708.03;;;20.66;93.62
66430;BME280;53242;51.694;10.006;2023-07-29T07:44:25;98701.94;;;20.60;93.13
66430;BME280;53242;51.694;10.006;2023-07-29T07:46:48;98701.16;;;20.60;93.84
66430;BME280;53242;51.694;10.006;2023-07-29T07:49:11;98699.28;;;20.55;94.14
66430;BME280;53242;51.694;10.006;2023-07-29T07:51:34;98699.69;;;20.78;92.57
66430;BME280;53242;51.694;10.006;2023-07-29T07:53:57;98693.59;;;20.62;92.96
66430;BME280;53242;51.694;10.006;2023-07-29T07:56:19;98692.53;;;20.63;93.69
66430;BME280;53242;51.694;10.006;2023-07-29T07:58:42;98686.19;;;20.53;93.67
66430;BME280;53242;51.694;10.006;2023-07-29T08:01:05;98699.28;;;20.55;93.58
66430;BME280;53242;51.694;10.006;2023-07-29T08:03:28;98690.69;;;20.58;95.23
66430;BME280;53242;51.694;10.006;2023-07-29T08:05:50;98690.69;;;20.58;94.71
66430;BME280;53242;51.694;10.006;2023-07-29T08:08:13;98689.38;;;20.90;92.94
66430;BME280;53242;51.694;10.006;2023-07-29T08:10:35;98691.25;;;20.90;93.86
66430;BME280;53242;51.694;10.006;2023-07-29T08:12:58;98687.84;;;21.08;92.99
66430;BME280;53242;51.694;10.006;2023-07-29T08:15:21;98691.97;;;21.00;93.20
66430;BME280;53242;51.694;10.006;2023-07-29T08:17:45;98685.00;;;20.99;92.66
66430;BME280;53242;51.694;10.006;2023-07-29T08:20:08;98688.19;;;21.01;93.31
66430;BME280;53242;51.694;10.006;2023-07-29T08:22:30;98685.00;;;20.99;93.18
66430;BME280;53242;51.694;10.006;2023-07-29T08:24:53;98682.34;;;20.94;93.14
66430;BME280;53242;51.694;10.006;2023-07-29T08:27:16;98689.50;;;20.75;93.99
66430;BME280;53242;51.694;10.006;2023-07-29T08:29:38;98686.28;;;20.78;93.22
66430;BME280;53242;51.694;10.006;2023-07-29T08:32:01;98681.28;;;20.95;92.29
66430;BME280;53242;51.694;10.006;2023-07-29T08:34:23;98686.97;;;20.89;92.73
66430;BME280;53242;51.694;10.006;2023-07-29T08:36:46;98688.38;;;20.81;92.10
66430;BME280;53242;51.694;10.006;2023-07-29T08:39:08;98692.72;;;20.77;92.55
66430;BME280;53242;51.694;10.006;2023-07-29T08:41:56;98686.84;;;21.04;92.77
66430;BME280;53242;51.694;10.006;2023-07-29T08:44:30;98679.72;;;20.89;91.68
66430;BME280;53242;51.694;10.006;2023-07-29T08:46:53;98686.94;;;20.94;92.38
66430;BME280;53242;51.694;10.006;2023-07-29T08:49:18;98690.41;;;20.94;91.72
66430;BME280;53242;51.694;10.006;2023-07-29T08:51:47;98689.47;;;20.80;92.90
66430;BME280;53242;51.694;10.006;2023-07-29T08:54:10;98700.59;;;20.97;92.43
66430;BME280;53242;51.694;10.006;2023-07-29T08:56:33;98699.59;;;20.88;92.48
66430;BME280;53242;51.694;10.006;2023-07-29T08:58:56;98709.22;;;20.89;92.88
66430;BME280;53242;51.694;10.006;2023-07-29T09:01:18;98707.66;;;20.88;92.65
66430;BME280;53242;51.694;10.006;2023-07-29T09:03:41;98714.09;;;20.87;92.92
66430;BME280;53242;51.694;10.006;2023-07-29T09:06:04;98708.16;;;20.90;92.64
66430;BME280;53242;51.694;10.006;2023-07-29T09:08:28;98703.44;;;20.77;92.96
66430;BME280;53242;51.694;10.006;2023-07-29T09:10:50;98707.31;;;20.95;92.29
66430;BME280;53242;51.694;10.006;2023-07-29T09:13:13;98705.41;;;20.95;92.72
66430;BME280;53242;51.694;10.006;2023-07-29T09:15:36;98708.19;;;20.85;92.60
66430;BME280;53242;51.694;10.006;2023-07-29T09:17:59;98708.72;;;20.87;92.07
66430;BME280;53242;51.694;10.006;2023-07-29T09:20:30;98719.16;;;20.89;92.07
66430;BME280;53242;51.694;10.006;2023-07-29T09:22:58;98712.16;;;20.93;91.76
66430;BME280;53242;51.694;10.006;2023-07-29T09:25:29;98724.81;;;20.87;91.91
66430;BME280;53242;51.694;10.006;2023-07-29T09:27:51;98727.66;;;21.01;91.31
66430;BME280;53242;51.694;10.006;2023-07-29T09:30:15;98718.31;;;20.93;92.14
66430;BME280;53242;51.694;10.006;2023-07-29T09:32:39;98706.53;;;21.18;90.38
66430;BME280;53242;51.694;10.006;2023-07-29T09:35:01;98705.78;;;21.42;89.63
66430;BME280;53242;51.694;10.006;2023-07-29T09:37:24;98704.34;;;21.50;89.38
66430;BME280;53242;51.694;10.006;2023-07-29T09:39:47;98699.44;;;21.57;88.65
66430;BME280;53242;51.694;10.006;2023-07-29T09:42:21;98702.59;;;21.64;88.45
66430;BME280;53242;51.694;10.006;2023-07-29T09:44:44;98694.66;;;21.97;87.40
66430;BME280;53242;51.694;10.006;2023-07-29T09:47:06;98702.66;;;22.03;87.32
66430;BME280;53242;51.694;10.006;2023-07-29T09:49:35;98706.22;;;21.74;88.50
66430;BME280;53242;51.694;10.006;2023-07-29T09:51:59;98703.81;;;21.96;87.09
66430;BME280;53242;51.694;10.006;2023-07-29T09:54:24;98707.25;;;21.78;88.06
66430;BME280;53242;51.694;10.006;2023-07-29T09:56:47;98710.47;;;21.80;87.96
66430;BME280;53242;51.694;10.006;2023-07-29T09:59:09;98704.50;;;21.83;87.56
66430;BME280;53242;51.694;10.006;2023-07-29T10:01:32;98706.97;;;21.98;86.40
66430;BME280;53242;51.694;10.006;2023-07-29T10:03:57;98703.72;;;22.59;83.78
66430;BME280;53242;51.694;10.006;2023-07-29T10:06:22;98707.94;;;22.65;84.02
66430;BME280;53242;51.694;10.006;2023-07-29T10:08:45;98700.81;;;23.21;81.79
66430;BME280;53242;51.694;10.006;2023-07-29T10:11:08;98691.53;;;23.55;80.45
66430;BME280;53242;51.694;10.006;2023-07-29T10:13:31;98698.31;;;23.53;80.84
66430;BME280;53242;51.694;10.006;2023-07-29T10:15:54;98702.56;;;22.98;81.86
66430;BME280;53242;51.694;10.006;2023-07-29T10:18:17;98704.25;;;22.61;79.20
66430;BME280;53242;51.694;10.006;2023-07-29T10:20:43;98700.53;;;22.57;80.63
66430;BME280;53242;51.694;10.006;2023-07-29T10:23:07;98697.03;;;22.56;80.39
66430;BME280;53242;51.694;10.006;2023-07-29T10:25:38;98695.03;;;22.81;79.02
66430;BME280;53242;51.694;10.006;2023-07-29T10:28:06;98698.56;;;23.09;78.65
66430;BME280;53242;51.694;10.006;2023-07-29T10:30:30;98702.72;;;23.02;78.28
66430;BME280;53242;51.694;10.006;2023-07-29T10:32:52;98701.34;;;23.04;78.02
66430;BME280;53242;51.694;10.006;2023-07-29T10:35:16;98699.91;;;22.79;78.95
66430;BME280;53242;51.694;10.006;2023-07-29T10:37:39;98685.50;;;23.03;77.99
66430;BME280;53242;51.694;10.006;2023-07-29T10:40:06;98681.47;;;23.19;76.71
66430;BME280;53242;51.694;10.006;2023-07-29T10:42:29;98689.72;;;23.64;75.73
66430;BME280;53242;51.694;10.006;2023-07-29T10:44:52;98684.69;;;24.13;73.11
66430;BME280;53242;51.694;10.006;2023-07-29T10:47:19;98682.34;;;23.84;74.59
66430;BME280;53242;51.694;10.006;2023-07-29T10:49:48;98681.59;;;23.42;75.48
66430;BME280;53242;51.694;10.006;2023-07-29T10:52:16;98698.91;;;22.89;77.00
66430;BME280;53242;51.694;10.006;2023-07-29T10:54:46;98709.72;;;22.37;80.55
66430;BME280;53242;51.694;10.006;2023-07-29T10:57:15;98729.03;;;21.76;84.82
66430;BME280;53242;51.694;10.006;2023-07-29T10:59:38;98707.59;;;21.23;87.17
66430;BME280;53242;51.694;10.006;2023-07-29T11:02:01;98723.53;;;21.38;83.96
66430;BME280;53242;51.694;10.006;2023-07-29T11:04:28;98726.91;;;20.90;82.58
66430;BME280;53242;51.694;10.006;2023-07-29T11:09:39;98715.00;;;21.31;79.74
66430;BME280;53242;51.694;10.006;2023-07-29T11:12:07;98715.69;;;21.42;79.73
66430;BME280;53242;51.694;10.006;2023-07-29T11:14:48;98714.69;;;21.86;79.19
66430;BME280;53242;51.694;10.006;2023-07-29T11:17:10;98723.03;;;21.84;78.95
66430;BME280;53242;51.694;10.006;2023-07-29T11:19:34;98711.44;;;22.27;78.40
66430;BME280;53242;51.694;10.006;2023-07-29T11:21:57;98711.25;;;22.76;76.16
66430;BME280;53242;51.694;10.006;2023-07-29T11:24:20;98711.81;;;22.92;77.00
66430;BME280;53242;51.694;10.006;2023-07-29T11:26:46;98709.25;;;23.14;76.37
66430;BME280;53242;51.694;10.006;2023-07-29T11:29:09;98703.81;;;23.34;78.98
66430;BME280;53242;51.694;10.006;2023-07-29T11:31:41;98699.13;;;23.39;78.70
66430;BME280;53242;51.694;10.006;2023-07-29T11:34:06;98708.81;;;23.26;78.80
66430;BME280;53242;51.694;10.006;2023-07-29T11:36:29;98717.69;;;23.08;78.41
66430;BME280;53242;51.694;10.006;2023-07-29T11:38:51;98716.59;;;22.62;78.58
66430;BME280;53242;51.694;10.006;2023-07-29T11:41:19;98716.28;;;22.82;77.27
66430;BME280;53242;51.694;10.006;2023-07-29T11:43:43;98715.19;;;22.97;76.42
66430;BME280;53242;51.694;10.006;2023-07-29T11:46:05;98712.84;;;23.10;76.22
66430;BME280;53242;51.694;10.006;2023-07-29T11:48:30;98713.38;;;23.40;75.30
66430;BME280;53242;51.694;10.006;2023-07-29T11:50:53;98723.75;;;23.88;74.73
66430;BME280;53242;51.694;10.006;2023-07-29T11:53:16;98713.38;;;23.40;66.30
66430;BME280;53242;51.694;10.006;2023-07-29T11:55:39;98707.91;;;23.59;69.09
66430;BME280;53242;51.694;10.006;2023-07-29T11:58:01;98703.72;;;23.67;67.59
66430;BME280;53242;51.694;10.006;2023-07-29T12:00:25;98708.28;;;23.80;67.98
66430;BME280;53242;51.694;10.006;2023-07-29T12:02:49;98706.50;;;23.47;67.14
66430;BME280;53242;51.694;10.006;2023-07-29T12:05:13;98704.50;;;23.67;65.87
66430;BME280;53242;51.694;10.006;2023-07-29T12:07:38;98713.09;;;23.69;66.46
66430;BME280;53242;51.694;10.006;2023-07-29T12:10:02;98709.09;;;23.53;67.47
66430;BME280;53242;51.694;10.006;2023-07-29T12:12:25;98719.00;;;23.57;67.03
66430;BME280;53242;51.694;10.006;2023-07-29T12:14:48;98716.88;;;23.82;66.85
66430;BME280;53242;51.694;10.006;2023-07-29T12:17:10;98714.88;;;23.74;65.90
66430;BME280;53242;51.694;10.006;2023-07-29T12:19:34;98726.97;;;23.76;65.45
66430;BME280;53242;51.694;10.006;2023-07-29T12:21:57;98719.06;;;23.80;64.34
66430;BME280;53242;51.694;10.006;2023-07-29T12:24:22;98715.38;;;24.04;62.65
66430;BME280;53242;51.694;10.006;2023-07-29T12:26:44;98711.28;;;24.29;62.30
66430;BME280;53242;51.694;10.006;2023-07-29T12:29:17;98714.09;;;24.24;60.95
66430;BME280;53242;51.694;10.006;2023-07-29T12:31:42;98715.28;;;24.68;61.22
66430;BME280;53242;51.694;10.006;2023-07-29T12:34:04;98716.88;;;24.33;62.23
66430;BME280;53242;51.694;10.006;2023-07-29T12:36:41;98715.00;;;24.33;58.74
66430;BME280;53242;51.694;10.006;2023-07-29T12:39:04;98701.69;;;24.00;60.68